createdAt,value
2023-04-04T00:00:31.141Z,25.30
2023-04-04T00:02:57.981Z,24.80
2023-04-04T00:05:24.789Z,24.90
2023-04-04T00:07:51.577Z,25.00
2023-04-04T00:10:18.312Z,25.10
2023-04-04T00:12:45.151Z,25.20
2023-04-04T00:15:13.271Z,25.20
2023-04-04T00:17:40.581Z,25.30
2023-04-04T00:20:07.798Z,25.30
2023-04-04T00:22:34.689Z,25.40
2023-04-04T00:25:01.466Z,25.60
2023-04-04T00:27:28.790Z,25.70
2023-04-04T00:29:55.911Z,25.70
2023-04-04T00:32:23.286Z,25.90
2023-04-04T00:34:54.080Z,25.90
2023-04-04T00:37:21.625Z,26.10
2023-04-04T00:39:49.904Z,26.10
2023-04-04T00:42:17.974Z,26.10
2023-04-04T00:44:44.907Z,26.10
2023-04-04T00:47:11.770Z,26.20
2023-04-04T00:49:38.512Z,26.30
2023-04-04T00:52:07.749Z,26.40
2023-04-04T00:54:35.560Z,26.40
2023-04-04T00:57:04.285Z,26.40
2023-04-04T00:59:32.086Z,27.10
2023-04-04T01:02:00.705Z,26.60
2023-04-04T01:04:29.343Z,26.70
2023-04-04T01:06:56.662Z,26.80
2023-04-04T01:09:23.977Z,26.90
2023-04-04T01:11:52.284Z,26.90
2023-04-04T01:14:20.476Z,26.90
2023-04-04T01:16:50.540Z,27.00
2023-04-04T01:19:44.610Z,27.00
2023-04-04T01:22:14.174Z,27.10
2023-04-04T01:24:45.001Z,27.10
2023-04-04T01:27:11.829Z,27.20
2023-04-04T01:29:40.051Z,27.30
2023-04-04T01:32:15.421Z,27.90
2023-04-04T01:34:53.927Z,27.30
2023-04-04T01:37:38.504Z,27.30
2023-04-04T01:40:28.289Z,27.20
2023-04-04T01:42:56.099Z,27.20
2023-04-04T01:45:23.056Z,27.10
2023-04-04T01:47:50.114Z,27.10
2023-04-04T01:50:16.861Z,27.10
2023-04-04T01:52:43.928Z,27.00
2023-04-04T01:55:10.688Z,27.00
2023-04-04T01:57:37.434Z,27.00
2023-04-04T02:00:05.510Z,27.10
2023-04-04T02:02:32.453Z,27.10
2023-04-04T02:04:59.453Z,27.10
2023-04-04T02:07:26.256Z,27.20
2023-04-04T02:09:53.337Z,27.10
2023-04-04T02:12:20.246Z,27.10
2023-04-04T02:14:47.078Z,27.10
2023-04-04T02:17:13.861Z,27.10
2023-04-04T02:19:40.890Z,27.20
2023-04-04T02:22:08.388Z,27.20
2023-04-04T02:24:36.129Z,27.20
2023-04-04T02:27:04.409Z,27.20
2023-04-04T02:29:31.186Z,27.20
2023-04-04T02:31:57.921Z,27.20
2023-04-04T02:34:24.611Z,27.20
2023-04-04T02:36:51.743Z,27.10
2023-04-04T02:39:18.531Z,27.10
2023-04-04T02:41:45.530Z,27.20
2023-04-04T02:44:12.546Z,27.20
2023-04-04T02:46:39.379Z,27.20
2023-04-04T02:49:06.146Z,27.30
2023-04-04T02:51:33.537Z,27.30
2023-04-04T02:54:00.905Z,27.30
2023-04-04T02:56:27.962Z,27.20
2023-04-04T02:58:54.805Z,27.20
2023-04-04T03:01:21.677Z,27.20
2023-04-04T03:03:48.521Z,27.20
2023-04-04T03:06:15.465Z,27.20
2023-04-04T03:08:42.274Z,27.20
2023-04-04T03:11:09.118Z,27.20
2023-04-04T03:13:36.048Z,27.10
2023-04-04T03:16:06.283Z,27.20
2023-04-04T03:18:34.656Z,27.10
2023-04-04T03:21:10.373Z,27.10
2023-04-04T03:23:37.109Z,27.00
2023-04-04T03:26:03.942Z,27.00
2023-04-04T03:28:31.069Z,27.10
2023-04-04T03:30:57.827Z,27.10
2023-04-04T03:33:24.660Z,27.10
2023-04-04T03:35:51.408Z,27.10
2023-04-04T03:38:18.202Z,27.10
2023-04-04T03:40:45.447Z,27.10
2023-04-04T03:43:12.785Z,27.10
2023-04-04T03:45:39.581Z,27.10
2023-04-04T03:48:06.696Z,27.10
2023-04-04T03:50:35.524Z,27.20
2023-04-04T03:53:02.287Z,27.20
2023-04-04T03:55:29.222Z,27.10
2023-04-04T03:57:57.189Z,27.20
2023-04-04T04:00:24.154Z,27.20
2023-04-04T04:02:51.083Z,27.20
2023-04-04T04:05:17.896Z,27.70
2023-04-04T04:07:45.388Z,27.20
2023-04-04T04:10:14.232Z,27.20
2023-04-04T04:12:41.613Z,27.20
2023-04-04T04:15:09.052Z,27.30
2023-04-04T04:17:40.241Z,27.30
2023-04-04T04:20:08.609Z,27.40
2023-04-04T04:22:35.780Z,27.40
2023-04-04T04:25:02.750Z,27.40
2023-04-04T04:27:33.019Z,27.40
2023-04-04T04:29:59.850Z,27.40
2023-04-04T04:32:27.248Z,27.40
2023-04-04T04:34:54.061Z,27.40
2023-04-04T04:37:20.842Z,27.40
2023-04-04T04:39:47.620Z,27.40
2023-04-04T04:42:14.375Z,27.40
2023-04-04T04:44:41.548Z,27.40
2023-04-04T04:47:08.411Z,27.30
2023-04-04T04:49:35.637Z,27.40
2023-04-04T04:52:02.757Z,27.40
2023-04-04T04:54:29.559Z,27.90
2023-04-04T04:56:56.427Z,27.30
2023-04-04T04:59:23.468Z,27.30
2023-04-04T05:01:50.488Z,27.30
2023-04-04T05:04:17.633Z,27.50
2023-04-04T05:06:44.500Z,27.50
2023-04-04T05:09:11.320Z,27.60
2023-04-04T05:11:38.159Z,27.60
2023-04-04T05:14:06.080Z,27.60
2023-04-04T05:16:33.340Z,27.60
2023-04-04T05:19:00.143Z,27.60
2023-04-04T05:21:26.928Z,27.60
2023-04-04T05:23:53.769Z,27.60
2023-04-04T05:26:20.630Z,27.50
2023-04-04T05:28:47.888Z,27.50
2023-04-04T05:31:14.617Z,27.40
2023-04-04T05:33:41.431Z,27.50
2023-04-04T05:36:08.596Z,27.40
2023-04-04T05:38:36.102Z,27.40
2023-04-04T05:41:02.873Z,27.40
2023-04-04T05:43:29.658Z,27.40
2023-04-04T05:45:56.411Z,27.40
2023-04-04T05:48:23.218Z,27.50
2023-04-04T05:50:50.201Z,27.50
2023-04-04T05:53:17.029Z,27.50
2023-04-04T05:55:43.875Z,27.50
2023-04-04T05:58:12.468Z,27.50
2023-04-04T06:00:40.161Z,27.50
2023-04-04T06:03:07.063Z,27.50
2023-04-04T06:05:33.931Z,27.50
2023-04-04T06:08:00.897Z,27.50
2023-04-04T06:10:27.663Z,27.50
2023-04-04T06:12:54.412Z,27.60
2023-04-04T06:15:21.288Z,27.60
2023-04-04T06:17:48.225Z,27.60
2023-04-04T06:20:15.045Z,27.60
2023-04-04T06:22:41.905Z,27.60
2023-04-04T06:25:10.446Z,27.60
2023-04-04T06:27:37.622Z,27.60
2023-04-04T06:30:04.899Z,27.70
2023-04-04T06:32:32.066Z,27.70
2023-04-04T06:34:58.823Z,27.70
2023-04-04T06:37:25.773Z,27.80
2023-04-04T06:39:53.682Z,27.80
2023-04-04T06:42:20.462Z,27.90
2023-04-04T06:44:47.603Z,27.90
2023-04-04T06:47:14.916Z,27.90
2023-04-04T06:49:41.669Z,27.90
2023-04-04T06:52:08.727Z,27.90
2023-04-04T06:54:35.858Z,27.90
2023-04-04T06:57:03.000Z,27.90
2023-04-04T06:59:30.059Z,27.90
2023-04-04T07:01:57.733Z,27.90
2023-04-04T07:04:24.550Z,27.90
2023-04-04T07:06:54.652Z,28.00
2023-04-04T07:09:28.850Z,28.00
2023-04-04T07:11:56.672Z,28.10
2023-04-04T07:14:25.402Z,28.30
2023-04-04T07:16:53.109Z,28.40
2023-04-04T07:19:19.939Z,28.50
2023-04-04T07:21:46.699Z,28.50
2023-04-04T07:24:13.513Z,28.50
2023-04-04T07:26:40.866Z,28.60
2023-04-04T07:29:08.093Z,28.60
2023-04-04T07:31:34.970Z,28.60
2023-04-04T07:34:02.139Z,28.60
2023-04-04T07:36:31.546Z,28.60
2023-04-04T07:38:58.463Z,28.60
2023-04-04T07:41:25.862Z,28.60
2023-04-04T07:43:54.978Z,28.60
2023-04-04T07:46:22.298Z,28.60
2023-04-04T07:48:49.106Z,28.50
2023-04-04T07:51:16.019Z,28.50
2023-04-04T07:53:42.764Z,28.30
2023-04-04T07:56:09.517Z,28.30
2023-04-04T07:58:36.708Z,28.30
2023-04-04T08:01:03.866Z,28.20
2023-04-04T08:03:30.890Z,28.20
2023-04-04T08:05:57.957Z,28.10
2023-04-04T08:08:24.833Z,28.10
2023-04-04T08:10:51.704Z,27.90
2023-04-04T08:13:18.478Z,27.70
2023-04-04T08:15:45.473Z,27.60
2023-04-04T08:18:12.454Z,27.40
2023-04-04T08:20:39.452Z,27.10
2023-04-04T08:23:06.351Z,26.70
2023-04-04T08:25:34.887Z,26.50
2023-04-04T08:28:05.206Z,26.40
2023-04-04T08:30:34.600Z,26.10
2023-04-04T08:33:02.387Z,25.80
2023-04-04T08:35:31.127Z,25.80
2023-04-04T08:37:57.974Z,25.60
2023-04-04T08:40:24.849Z,25.40
2023-04-04T08:42:51.981Z,25.30
2023-04-04T08:45:19.411Z,25.30
2023-04-04T08:47:50.249Z,25.30
2023-04-04T08:50:17.899Z,25.10
2023-04-04T08:52:46.460Z,25.00
2023-04-04T08:55:14.051Z,24.90
2023-04-04T08:57:41.142Z,24.90
2023-04-04T09:00:09.275Z,25.10
2023-04-04T09:02:43.725Z,25.00
2023-04-04T09:05:12.614Z,24.80
2023-04-04T09:07:40.452Z,24.70
2023-04-04T09:10:11.769Z,24.40
2023-04-04T09:12:42.886Z,24.20
2023-04-04T09:15:10.570Z,24.10
2023-04-04T09:17:38.051Z,24.20
2023-04-04T09:20:37.623Z,24.10
2023-04-04T09:23:20.278Z,24.20
2023-04-04T09:28:19.715Z,24.30
2023-04-04T09:30:50.782Z,24.40
2023-04-04T09:33:18.994Z,24.40
2023-04-04T09:35:52.498Z,24.40
2023-04-04T09:38:23.215Z,24.40
2023-04-04T09:40:51.450Z,24.20
2023-04-04T09:43:19.526Z,24.20
2023-04-04T09:45:47.574Z,24.20
2023-04-04T09:48:27.255Z,24.10
2023-04-04T09:50:54.242Z,24.20
2023-04-04T09:53:21.265Z,24.10
2023-04-04T09:55:55.499Z,24.10
2023-04-04T09:58:31.930Z,24.00
2023-04-04T10:01:01.139Z,24.10
2023-04-04T10:03:30.192Z,24.10
2023-04-04T10:06:00.254Z,24.10
2023-04-04T10:08:29.389Z,24.10
2023-04-04T10:13:33.144Z,24.10
2023-04-04T10:16:00.690Z,24.10
2023-04-04T10:18:30.143Z,24.10
2023-04-04T10:21:12.264Z,24.30
2023-04-04T10:23:42.713Z,24.00
2023-04-04T10:26:09.943Z,23.80
2023-04-04T10:28:36.805Z,23.70
2023-04-04T10:31:18.601Z,23.50
2023-04-04T10:34:07.540Z,23.60
2023-04-04T10:36:49.236Z,23.60
2023-04-04T10:39:24.721Z,23.80
2023-04-04T10:41:53.033Z,23.80
2023-04-04T10:44:39.380Z,24.00
2023-04-04T10:47:23.996Z,24.00
2023-04-04T10:49:51.720Z,24.00
2023-04-04T10:52:21.121Z,24.00
2023-04-04T10:54:51.338Z,24.00
2023-04-04T10:57:18.407Z,24.20
2023-04-04T11:00:10.935Z,24.20
2023-04-04T11:02:52.964Z,24.10
2023-04-04T11:05:20.363Z,24.20
2023-04-04T11:07:57.246Z,24.40
2023-04-04T11:10:36.161Z,24.60
2023-04-04T11:13:16.224Z,24.80
2023-04-04T11:15:47.731Z,25.10
2023-04-04T11:18:31.536Z,24.60
2023-04-04T11:21:03.707Z,24.50
2023-04-04T11:23:48.821Z,24.40
2023-04-04T11:26:34.273Z,24.30
2023-04-04T11:29:08.014Z,24.30
2023-04-04T11:31:39.954Z,24.30
2023-04-04T11:34:11.289Z,24.20
2023-04-04T11:36:38.987Z,24.10
2023-04-04T11:39:28.451Z,24.20
2023-04-04T11:42:03.852Z,24.30
2023-04-04T11:44:32.653Z,24.40
2023-04-04T11:47:05.432Z,24.60
2023-04-04T11:49:37.959Z,24.70
2023-04-04T11:52:06.773Z,24.70
2023-04-04T11:54:34.335Z,24.50
2023-04-04T11:57:03.477Z,24.60
2023-04-04T11:59:30.690Z,24.40
2023-04-04T12:01:57.790Z,24.20
2023-04-04T12:04:26.137Z,24.00
2023-04-04T12:06:54.729Z,23.90
2023-04-04T12:09:25.389Z,24.10
2023-04-04T12:11:52.746Z,24.10
2023-04-04T12:14:22.056Z,24.00
2023-04-04T12:16:50.597Z,24.00
2023-04-04T12:19:18.474Z,24.00
2023-04-04T12:21:50.392Z,24.00
2023-04-04T12:24:17.874Z,23.80
2023-04-04T12:26:48.076Z,23.70
2023-04-04T12:29:17.126Z,23.70
2023-04-04T12:31:46.922Z,23.80
2023-04-04T12:34:24.907Z,23.60
2023-04-04T12:36:58.350Z,23.80
2023-04-04T12:39:29.645Z,23.80
2023-04-04T12:42:03.868Z,24.00
2023-04-04T12:44:36.089Z,24.10
2023-04-04T12:47:06.258Z,24.30
2023-04-04T12:49:43.014Z,24.30
2023-04-04T12:52:26.523Z,24.40
2023-04-04T12:55:06.949Z,24.30
2023-04-04T12:57:40.549Z,24.30
2023-04-04T13:00:09.297Z,24.30
2023-04-04T13:02:37.885Z,24.30
2023-04-04T13:05:07.228Z,24.20
2023-04-04T13:07:43.860Z,24.20
2023-04-04T13:10:15.829Z,24.20
2023-04-04T13:13:00.520Z,24.30
2023-04-04T13:15:50.612Z,24.40
2023-04-04T13:18:23.435Z,24.50
2023-04-04T13:20:51.952Z,24.40
2023-04-04T13:23:18.953Z,24.30
2023-04-04T13:25:46.520Z,24.20
2023-04-04T13:28:13.343Z,24.20
2023-04-04T13:30:43.615Z,24.20
2023-04-04T13:33:10.574Z,24.20
2023-04-04T13:35:38.409Z,24.00
2023-04-04T13:38:05.687Z,23.90
2023-04-04T13:40:32.500Z,23.90
2023-04-04T13:42:59.825Z,24.00
2023-04-04T13:45:26.668Z,23.90
2023-04-04T13:47:53.556Z,23.80
2023-04-04T13:50:22.210Z,23.90
2023-04-04T13:52:51.879Z,23.80
2023-04-04T13:55:18.785Z,23.70
2023-04-04T13:57:46.069Z,23.80
2023-04-04T14:00:13.418Z,23.80
2023-04-04T14:02:40.531Z,23.80
2023-04-04T14:05:08.114Z,23.90
2023-04-04T14:07:38.341Z,23.80
2023-04-04T14:10:05.972Z,23.80
2023-04-04T14:12:33.011Z,23.80
2023-04-04T14:14:59.764Z,23.90
2023-04-04T14:17:26.586Z,23.90
2023-04-04T14:19:53.518Z,23.90
2023-04-04T14:22:20.302Z,23.90
2023-04-04T14:24:47.188Z,23.80
2023-04-04T14:27:13.946Z,23.90
2023-04-04T14:29:41.283Z,23.90
2023-04-04T14:32:09.932Z,24.00
2023-04-04T14:34:37.147Z,24.10
2023-04-04T14:37:05.942Z,24.00
2023-04-04T14:39:33.209Z,24.00
2023-04-04T14:42:00.471Z,24.10
2023-04-04T14:44:28.258Z,24.10
2023-04-04T14:46:55.118Z,24.10
2023-04-04T14:49:22.043Z,24.20
2023-04-04T14:51:48.862Z,24.20
2023-04-04T14:54:16.185Z,24.20
2023-04-04T14:56:44.815Z,24.10
2023-04-04T14:59:11.841Z,24.20
2023-04-04T15:01:38.893Z,24.20
2023-04-04T15:04:09.158Z,24.20
2023-04-04T15:06:38.035Z,24.20
2023-04-04T15:09:08.673Z,24.10
2023-04-04T15:11:35.934Z,24.10
2023-04-04T15:14:03.043Z,24.20
2023-04-04T15:16:33.045Z,24.20
2023-04-04T15:19:01.000Z,24.20
2023-04-04T15:21:28.625Z,24.20
2023-04-04T15:23:55.957Z,24.00
2023-04-04T15:26:23.155Z,24.00
2023-04-04T15:28:49.982Z,24.00
2023-04-04T15:31:17.339Z,23.90
2023-04-04T15:33:44.259Z,23.90
2023-04-04T15:36:11.125Z,23.90
2023-04-04T15:38:39.032Z,23.80
2023-04-04T15:41:08.239Z,23.80
2023-04-04T15:43:36.819Z,23.80
2023-04-04T15:46:03.960Z,23.70
2023-04-04T15:48:30.929Z,23.70
2023-04-04T15:51:02.256Z,23.70
2023-04-04T15:53:30.776Z,23.70
2023-04-04T15:55:58.676Z,23.70
2023-04-04T15:58:26.395Z,23.80
2023-04-04T16:00:53.623Z,23.80
2023-04-04T16:03:20.711Z,23.90
2023-04-04T16:05:47.956Z,23.90
2023-04-04T16:08:14.887Z,23.80
2023-04-04T16:10:43.928Z,23.80
2023-04-04T16:13:11.534Z,23.90
2023-04-04T16:15:38.528Z,23.90
2023-04-04T16:18:05.513Z,24.00
2023-04-04T16:20:32.600Z,24.10
2023-04-04T16:22:59.334Z,24.10
2023-04-04T16:25:26.217Z,24.10
2023-04-04T16:27:53.093Z,24.20
2023-04-04T16:30:20.054Z,24.30
2023-04-04T16:32:47.703Z,24.40
2023-04-04T16:35:14.931Z,24.30
2023-04-04T16:37:41.697Z,24.30
2023-04-04T16:40:08.947Z,24.20
2023-04-04T16:42:36.511Z,24.20
2023-04-04T16:45:03.763Z,24.20
2023-04-04T16:47:31.374Z,24.10
2023-04-04T16:49:58.525Z,24.10
2023-04-04T16:52:25.568Z,24.00
2023-04-04T16:54:54.885Z,24.10
2023-04-04T16:57:21.728Z,24.20
2023-04-04T16:59:48.705Z,24.30
2023-04-04T17:02:15.471Z,24.40
2023-04-04T17:04:44.012Z,24.60
2023-04-04T17:07:10.848Z,24.70
2023-04-04T17:09:38.401Z,24.80
2023-04-04T17:12:05.721Z,24.80
2023-04-04T17:14:32.466Z,24.80
2023-04-04T17:17:00.597Z,24.80
2023-04-04T17:19:31.414Z,24.80
2023-04-04T17:21:58.995Z,24.80
2023-04-04T17:24:27.199Z,24.60
2023-04-04T17:26:56.013Z,24.50
2023-04-04T17:29:26.697Z,24.40
2023-04-04T17:31:55.120Z,24.40
2023-04-04T17:34:22.175Z,24.30
2023-04-04T17:36:49.096Z,24.30
2023-04-04T17:39:16.685Z,24.40
2023-04-04T17:41:47.442Z,24.50
2023-04-04T17:44:18.147Z,24.60
2023-04-04T17:46:46.129Z,24.80
2023-04-04T17:49:19.320Z,24.80
2023-04-04T17:51:49.899Z,25.00
2023-04-04T17:54:17.671Z,25.10
2023-04-04T17:56:45.404Z,25.10
2023-04-04T17:59:13.718Z,25.10
2023-04-04T18:01:41.396Z,25.20
2023-04-04T18:04:08.288Z,25.20
2023-04-04T18:06:35.462Z,25.30
2023-04-04T18:09:02.292Z,25.30
2023-04-04T18:11:29.776Z,25.30
2023-04-04T18:13:56.583Z,25.40
2023-04-04T18:16:23.757Z,25.40
2023-04-04T18:18:51.489Z,25.40
2023-04-04T18:21:18.425Z,25.50
2023-04-04T18:23:45.441Z,25.50
2023-04-04T18:26:13.193Z,25.60
2023-04-04T18:28:40.264Z,25.70
2023-04-04T18:31:08.255Z,25.80
2023-04-04T18:33:35.174Z,26.00
2023-04-04T18:36:03.658Z,26.00
2023-04-04T18:38:30.549Z,26.10
2023-04-04T18:40:57.416Z,26.20
2023-04-04T18:43:26.950Z,26.20
2023-04-04T18:45:55.037Z,26.20
2023-04-04T18:48:24.863Z,26.20
2023-04-04T18:50:52.201Z,26.20
2023-04-04T18:53:19.025Z,26.20
2023-04-04T18:55:48.927Z,26.20
2023-04-04T18:58:15.886Z,26.20
2023-04-04T19:00:43.037Z,26.20
2023-04-04T19:03:11.824Z,26.20
2023-04-04T19:05:41.246Z,26.10
2023-04-04T19:08:09.117Z,26.10
2023-04-04T19:10:36.226Z,26.20
2023-04-04T19:13:02.983Z,26.20
2023-04-04T19:15:30.347Z,26.20
2023-04-04T19:17:57.608Z,26.30
2023-04-04T19:20:24.388Z,26.30
2023-04-04T19:22:51.345Z,26.30
2023-04-04T19:25:18.815Z,26.30
2023-04-04T19:27:45.716Z,26.40
2023-04-04T19:30:44.577Z,26.40
2023-04-04T19:33:13.087Z,26.50
2023-04-04T19:35:55.102Z,26.50
2023-04-04T19:38:36.071Z,26.60
2023-04-04T19:41:08.207Z,26.60
2023-04-04T19:43:35.092Z,26.60
2023-04-04T19:46:10.075Z,26.70
2023-04-04T19:48:44.169Z,26.70
2023-04-04T19:51:32.900Z,26.70
2023-04-04T19:54:00.575Z,26.70
2023-04-04T19:56:28.963Z,26.70
2023-04-04T19:58:58.088Z,26.70
2023-04-04T20:01:30.016Z,26.70
2023-04-04T20:03:57.574Z,26.70
2023-04-04T20:06:32.637Z,26.70
2023-04-04T20:09:02.624Z,26.70
2023-04-04T20:11:31.908Z,26.70
2023-04-04T20:14:01.088Z,26.70
2023-04-04T20:16:29.894Z,26.70
2023-04-04T20:18:59.504Z,26.70
2023-04-04T20:21:28.383Z,26.70
2023-04-04T20:23:58.270Z,26.70
2023-04-04T20:26:46.093Z,26.80
2023-04-04T20:29:17.004Z,26.80
2023-04-04T20:31:46.956Z,26.90
2023-04-04T20:34:39.000Z,26.90
2023-04-04T20:37:11.152Z,26.90
2023-04-04T20:39:46.491Z,26.80
2023-04-04T20:42:39.980Z,27.40
2023-04-04T20:45:09.707Z,26.90
2023-04-04T20:47:46.278Z,26.80
2023-04-04T20:50:16.090Z,26.80
2023-04-04T20:52:47.415Z,26.80
2023-04-04T20:55:14.247Z,26.80
2023-04-04T20:57:41.241Z,26.80
2023-04-04T21:00:23.425Z,26.80
2023-04-04T21:02:50.384Z,26.90
2023-04-04T21:05:38.734Z,26.90
2023-04-04T21:08:34.583Z,26.90
2023-04-04T21:11:01.367Z,26.90
2023-04-04T21:13:39.446Z,26.90
2023-04-04T21:16:16.703Z,27.00
2023-04-04T21:18:44.479Z,26.90
2023-04-04T21:21:19.106Z,26.90
2023-04-04T21:23:52.631Z,26.80
2023-04-04T21:26:34.383Z,26.80
2023-04-04T21:29:11.426Z,26.80
2023-04-04T21:31:40.421Z,26.80
2023-04-04T21:34:15.564Z,26.80
2023-04-04T21:36:43.194Z,26.80
2023-04-04T21:39:24.792Z,26.80
2023-04-04T21:42:04.129Z,26.80
2023-04-04T21:44:32.325Z,26.80
2023-04-04T21:46:59.168Z,26.80
2023-04-04T21:49:26.416Z,26.80
2023-04-04T21:51:53.286Z,26.80
2023-04-04T21:54:20.309Z,26.90
2023-04-04T21:56:47.178Z,27.00
2023-04-04T21:59:14.177Z,27.00
2023-04-04T22:01:41.271Z,27.00
2023-04-04T22:04:08.259Z,26.90
2023-04-04T22:06:35.217Z,27.50
2023-04-04T22:09:03.135Z,27.00
2023-04-04T22:11:30.117Z,27.00
2023-04-04T22:14:04.168Z,27.00
2023-04-04T22:16:32.099Z,27.00
2023-04-04T22:19:01.395Z,27.00
2023-04-04T22:21:28.589Z,27.10
2023-04-04T22:24:02.259Z,27.10
2023-04-04T22:26:32.302Z,27.10
2023-04-04T22:29:01.278Z,27.10
2023-04-04T22:31:28.698Z,27.10
2023-04-04T22:33:56.156Z,27.20
2023-04-04T22:36:25.067Z,27.10
2023-04-04T22:38:56.900Z,27.10
2023-04-04T22:41:27.438Z,27.10
2023-04-04T22:43:54.446Z,27.10
2023-04-04T22:46:21.399Z,27.10
2023-04-04T22:48:48.319Z,27.10
2023-04-04T22:51:15.701Z,27.10
2023-04-04T22:53:44.153Z,27.10
2023-04-04T22:56:11.546Z,27.20
2023-04-04T22:58:38.828Z,27.20
2023-04-04T23:01:06.387Z,27.20
2023-04-04T23:03:33.663Z,27.10
2023-04-04T23:06:00.666Z,27.10
2023-04-04T23:08:27.583Z,27.10
2023-04-04T23:10:54.399Z,27.10
2023-04-04T23:13:21.901Z,27.10
2023-04-04T23:15:49.392Z,27.00
2023-04-04T23:18:16.271Z,27.00
2023-04-04T23:20:43.698Z,27.00
2023-04-04T23:23:10.703Z,27.00
2023-04-04T23:25:37.512Z,27.00
2023-04-04T23:28:04.437Z,27.00
2023-04-04T23:30:31.420Z,27.00
2023-04-04T23:32:58.300Z,26.90
2023-04-04T23:35:25.391Z,26.90
2023-04-04T23:37:52.353Z,27.00
2023-04-04T23:40:19.295Z,27.00
2023-04-04T23:42:46.477Z,27.00
2023-04-04T23:45:14.755Z,27.00
2023-04-04T23:47:41.715Z,27.10
2023-04-04T23:50:08.959Z,27.10
2023-04-04T23:52:37.402Z,27.70
2023-04-04T23:55:04.956Z,27.10
2023-04-04T23:57:31.750Z,27.10
2023-04-04T23:59:58.591Z,27.10
